Aérodrome :
LOGIN :

S'inscrire | Disclaimer

   EN    FR    IT 

 










Légende :    VFR   VFR Marginal   IFR   IFR Intensif   IFR Très Intensif
Visi : 
Plafond : 
>= 8 km
>= 3000ft
5 à 8 km
1000 à 3000 ft
1500m à 5 km
500 à 1000 ft
800 à 1500m
200 à 500 ft
< 800m
< 200 ft
Symboles :   Orages  Brouillard  Fortes neiges  Fortes précipitations  Vent > 20 kt
SIGMETs :   Divers  Orages  Givrage  Turbulence  Onde Orograph.  Cendres Volcan.







- Altitude de l'aérodrome : 138 ft
- Code IATA : BIO


LEBB - Bilbao

DERNIER METAR :
  • 232200Z AUTO VRB01KT 9999 -RA FEW039 SCT050 BKN060 09/09 Q1000

METARs EXPIRÉS :
  • 232141Z VRB02KT 8000 -SHRA SCT030 FEW035TCU BKN045 BKN065 09/09 Q1000 RESHRA TEMPO 3000
  • 232130Z 30004KT 270V330 3500 SHRA SCT025 FEW030TCU BKN035 BKN045 10/09 Q0999 TEMPO 8000 NSW
  • 232128Z 30004KT 270V330 3500 SHRA SCT025 FEW030TCU BKN035 BKN045 10/09 Q0999 TEMPO 8000 NSW
  • 232100Z 32011KT 300V360 8000 -SHRA SCT025 FEW030TCU BKN035 BKN045 10/09 Q0999 RESHRA NOSIG
  • 232043Z 32013KT 290V350 8000 SHRA SCT020 FEW025TCU BKN030 BKN045 10/09 Q0999 NOSIG
  • 232030Z 32018G29KT 9999 -RA SCT020 BKN030 BKN065 10/09 Q0999 NOSIG
  • 232000Z 31005KT 260V340 9999 SCT025 BKN065 13/11 Q0998 NOSIG
  • 231930Z 32009KT 9999 FEW015 SCT020 BKN025 13/11 Q0997 NOSIG

TAF TAF LEBB
Valide du 23 à 18h jusqu'au 24 à 18h UTC


231700Z 2318/2418 29009KT 9999 SCT022 SCT040 TX18/2414Z TN08/2406Z
TEMPO 2318/2321 29015G25KT
PROB40
TEMPO 2318/2324 3000 SHRA RA SCT020TCU
PROB40
TEMPO 2318/2324 TSRA SCT020CB
BECMG 2321/2324 20010KT
TEMPO 2406/2418 19015G30KT
PROB40
TEMPO 2415/2418 19020G40KT
PROB40
TEMPO 2415/2418 SHRA TS SCT020TCU SCT030CB
Pas de NOTAMs connus pour ce terrain.



MET'MAP, la Météo Aéronautique d'un coup d'oeil ! - Copyright ORBIFLY Décembre 2007 - Disclaimer

ORBIFLY MET'MAP TEAM :

Programmation & Développement : Alexandra Zaïnal
Conception & Développement : Baudouin d'Aumeries
Co-Programmation & Développement : Marc-Olivier Méhu
Soutien technique & logistique : Manuel Goepfert

Contact : metmap@orbifly.com




SOURCES & CREDITS :

   NOAA